Time;durP1;ratioP1;P1;durP2;ratioP2;P2;SDS_P1;SDS_P2;PMS_P1;PMS_P2;Temp;Humidity;BMP_temperature;BMP_pressure;BME280_temperature;BME280_humidity;BME280_pressure;Samples;Min_cycle;Max_cycle;Signal;HPM_P1;HPM_P2
2024/01/09 00:00:50;;;;;;;14.52;5.82;;;-5.90;99.90;;;;;;4994893;28;20050;-65
2024/01/09 00:03:16;;;;;;;9.93;5.28;;;-5.90;99.90;;;;;;4998472;28;20034;-65
2024/01/09 00:05:42;;;;;;;14.75;5.30;;;-5.90;99.90;;;;;;4996758;28;20572;-65
2024/01/09 00:08:08;;;;;;;14.52;5.85;;;-5.90;99.90;;;;;;4994805;28;20135;-65
2024/01/09 00:10:33;;;;;;;11.82;5.68;;;-6.00;99.90;;;;;;4997284;28;20041;-65
2024/01/09 00:12:59;;;;;;;14.07;6.13;;;-6.00;99.90;;;;;;4992903;28;20050;-65
2024/01/09 00:15:25;;;;;;;17.08;7.38;;;-6.00;99.90;;;;;;4991968;28;20034;-65
2024/01/09 00:17:51;;;;;;;20.65;7.70;;;-6.10;99.90;;;;;;5000275;28;20045;-65
2024/01/09 00:20:17;;;;;;;19.42;6.95;;;-6.00;99.90;;;;;;4991923;28;20042;-65
2024/01/09 00:22:43;;;;;;;10.73;5.65;;;-6.00;99.90;;;;;;4999483;28;20033;-65
2024/01/09 00:25:09;;;;;;;20.42;5.85;;;-6.00;99.90;;;;;;4998016;28;20030;-65
2024/01/09 00:27:35;;;;;;;17.88;6.32;;;-6.00;99.90;;;;;;4994809;28;20061;-65
2024/01/09 00:30:04;;;;;;;13.75;6.07;;;-6.00;99.90;;;;;;4997344;28;20041;-65
2024/01/09 00:32:30;;;;;;;15.90;5.72;;;-6.00;99.90;;;;;;4993322;28;20077;-65
2024/01/09 00:34:57;;;;;;;16.52;6.05;;;-6.00;99.90;;;;;;4993199;28;20117;-65
2024/01/09 00:37:22;;;;;;;17.75;6.68;;;-6.00;99.90;;;;;;4996264;28;20037;-65
2024/01/09 00:39:50;;;;;;;13.15;6.05;;;-6.10;99.90;;;;;;4993854;28;20034;-65
2024/01/09 00:42:16;;;;;;;17.13;6.38;;;-6.10;99.90;;;;;;4995869;28;20037;-65
2024/01/09 00:44:42;;;;;;;14.23;5.90;;;-6.10;99.90;;;;;;4995796;28;20026;-65
2024/01/09 00:47:08;;;;;;;13.90;6.70;;;-6.10;99.90;;;;;;4991553;28;20480;-65
2024/01/09 00:49:33;;;;;;;25.08;6.70;;;-6.10;99.90;;;;;;4993247;28;20061;-65
2024/01/09 00:52:00;;;;;;;15.45;6.38;;;-6.10;99.90;;;;;;4992098;28;20038;-65
2024/01/09 00:54:26;;;;;;;16.25;6.63;;;-6.20;99.90;;;;;;4991586;28;20042;-65
2024/01/09 00:56:52;;;;;;;17.08;5.97;;;-6.20;99.90;;;;;;4988297;28;20052;-65
2024/01/09 00:59:18;;;;;;;15.73;5.93;;;-6.20;99.90;;;;;;5001706;28;20044;-65
2024/01/09 01:01:50;;;;;;;16.77;6.00;;;-6.20;99.90;;;;;;5001202;28;20023;-65
2024/01/09 01:04:17;;;;;;;15.23;6.40;;;-6.30;99.90;;;;;;5001958;28;20145;-65
2024/01/09 01:06:44;;;;;;;20.65;7.22;;;-6.30;99.90;;;;;;5001028;28;20150;-65
2024/01/09 01:09:10;;;;;;;16.05;6.55;;;-6.30;99.90;;;;;;5004004;28;20038;-65
2024/01/09 01:11:37;;;;;;;13.45;5.82;;;-6.30;99.90;;;;;;4999178;28;20036;-65
2024/01/09 01:14:03;;;;;;;16.80;6.78;;;-6.30;99.90;;;;;;4997114;28;20487;-65
2024/01/09 01:16:29;;;;;;;14.43;6.50;;;-6.30;99.90;;;;;;5002822;28;20034;-65
2024/01/09 01:18:55;;;;;;;13.32;6.03;;;-6.30;99.90;;;;;;5001626;28;20026;-65
2024/01/09 01:21:22;;;;;;;20.00;6.35;;;-6.30;99.90;;;;;;4999011;28;20045;-65
2024/01/09 01:23:48;;;;;;;14.35;6.78;;;-6.30;99.90;;;;;;5000159;28;20026;-65
2024/01/09 01:26:14;;;;;;;14.77;5.20;;;-6.30;99.90;;;;;;4996909;28;20034;-65
2024/01/09 01:28:40;;;;;;;17.35;5.95;;;-6.30;99.90;;;;;;5001298;28;20035;-65
2024/01/09 01:31:06;;;;;;;14.05;6.82;;;-6.30;99.90;;;;;;4997564;28;20034;-65
2024/01/09 01:33:32;;;;;;;14.23;6.13;;;-6.30;99.90;;;;;;4994582;28;20034;-65
2024/01/09 01:35:58;;;;;;;17.63;6.43;;;-6.30;99.90;;;;;;4999497;28;20482;-65
2024/01/09 01:38:23;;;;;;;12.60;6.13;;;-6.30;99.90;;;;;;4992925;28;20048;-65
2024/01/09 01:40:49;;;;;;;15.15;6.07;;;-6.30;99.90;;;;;;5011585;28;20122;-65
2024/01/09 01:43:15;;;;;;;16.85;6.60;;;-6.30;99.90;;;;;;5001315;28;20116;-65
2024/01/09 01:45:41;;;;;;;11.05;5.18;;;-6.30;99.90;;;;;;4997661;28;20132;-65
2024/01/09 01:48:07;;;;;;;18.70;6.70;;;-6.30;99.90;;;;;;4999281;28;20053;-65
2024/01/09 01:50:33;;;;;;;13.57;5.82;;;-6.30;99.90;;;;;;4998769;28;20109;-65
2024/01/09 01:53:00;;;;;;;11.13;6.15;;;-6.40;99.90;;;;;;4994227;28;20038;-65
2024/01/09 01:55:28;;;;;;;21.27;7.03;;;-6.40;99.90;;;;;;4998575;28;20033;-65
2024/01/09 01:57:56;;;;;;;15.70;6.75;;;-6.50;99.90;;;;;;4997253;28;20034;-65
2024/01/09 02:00:24;;;;;;;13.45;5.93;;;-6.50;99.90;;;;;;5002657;28;20065;-65
2024/01/09 02:02:52;;;;;;;18.00;6.13;;;-6.50;99.90;;;;;;4999106;28;20248;-65
2024/01/09 02:05:20;;;;;;;11.93;5.70;;;-6.60;99.90;;;;;;4999800;28;20041;-65
2024/01/09 02:07:50;;;;;;;11.50;5.25;;;-6.60;99.90;;;;;;4996345;28;20069;-65
2024/01/09 02:10:16;;;;;;;11.85;4.88;;;-6.60;99.90;;;;;;4999576;28;20041;-65
2024/01/09 02:12:42;;;;;;;14.55;5.53;;;-6.60;99.90;;;;;;4993887;28;20038;-65
2024/01/09 02:15:09;;;;;;;13.98;5.30;;;-6.60;99.90;;;;;;4998928;28;20069;-65
2024/01/09 02:17:36;;;;;;;14.98;5.80;;;-6.60;99.90;;;;;;4996706;28;20402;-65
2024/01/09 02:20:09;;;;;;;12.73;5.60;;;-6.50;99.90;;;;;;4999448;28;20029;-65
2024/01/09 02:22:35;;;;;;;17.48;5.68;;;-6.50;99.90;;;;;;4993227;28;20026;-65
2024/01/09 02:25:04;;;;;;;16.45;6.28;;;-6.50;99.90;;;;;;5011612;28;20034;-65
2024/01/09 02:27:33;;;;;;;12.20;5.28;;;-6.50;99.90;;;;;;4997991;28;20034;-65
2024/01/09 02:30:00;;;;;;;12.80;5.55;;;-6.50;99.90;;;;;;4995862;28;20030;-65
2024/01/09 02:32:25;;;;;;;12.98;5.07;;;-6.50;99.90;;;;;;4999523;28;20076;-65
2024/01/09 02:34:52;;;;;;;13.63;5.07;;;-6.50;99.90;;;;;;4999376;28;20062;-65
2024/01/09 02:37:18;;;;;;;11.48;5.25;;;-6.50;99.90;;;;;;5000004;28;20045;-65
2024/01/09 02:39:44;;;;;;;13.23;5.18;;;-6.50;99.90;;;;;;4997406;28;20799;-65
2024/01/09 02:42:09;;;;;;;12.05;5.82;;;-6.50;99.90;;;;;;4997808;28;20092;-65
2024/01/09 02:44:35;;;;;;;14.68;5.45;;;-6.50;99.90;;;;;;4993634;28;20540;-65
2024/01/09 02:47:01;;;;;;;11.90;4.80;;;-6.50;99.90;;;;;;4999530;28;20022;-65
2024/01/09 02:49:27;;;;;;;21.52;6.10;;;-6.50;99.90;;;;;;4998864;28;20030;-65
2024/01/09 02:51:53;;;;;;;16.40;6.60;;;-6.60;99.90;;;;;;4998485;28;20030;-65
2024/01/09 02:54:19;;;;;;;9.75;5.10;;;-6.60;99.90;;;;;;4996894;28;20035;-65
2024/01/09 02:56:45;;;;;;;13.40;5.25;;;-6.60;99.90;;;;;;4994866;28;20093;-65
2024/01/09 02:59:11;;;;;;;14.63;5.32;;;-6.70;99.50;;;;;;4995001;28;20569;-65
2024/01/09 03:01:36;;;;;;;11.13;5.80;;;-6.70;99.50;;;;;;4996701;28;20763;-65
2024/01/09 03:04:02;;;;;;;11.73;5.45;;;-6.80;99.60;;;;;;4994637;28;20031;-64
2024/01/09 03:06:28;;;;;;;10.10;4.95;;;-6.90;99.80;;;;;;5001577;28;20761;-66
2024/01/09 03:08:53;;;;;;;12.98;5.32;;;-6.90;99.90;;;;;;4995482;28;20042;-66
2024/01/09 03:11:19;;;;;;;15.07;6.88;;;-6.90;99.90;;;;;;4997859;28;20037;-66
2024/01/09 03:13:45;;;;;;;11.93;5.05;;;-6.90;99.90;;;;;;4991485;28;20113;-66
2024/01/09 03:16:14;;;;;;;13.60;5.22;;;-6.90;99.90;;;;;;4998209;28;20383;-66
2024/01/09 03:18:41;;;;;;;14.00;5.95;;;-6.90;99.90;;;;;;4995611;28;20038;-66
2024/01/09 03:21:07;;;;;;;17.75;6.13;;;-6.90;99.90;;;;;;4997465;28;20112;-66
2024/01/09 03:23:33;;;;;;;14.10;5.95;;;-6.90;99.90;;;;;;4995052;28;20383;-66
2024/01/09 03:25:59;;;;;;;10.38;4.75;;;-6.90;99.80;;;;;;4999939;28;20034;-65
2024/01/09 03:28:25;;;;;;;14.07;5.70;;;-7.00;99.90;;;;;;4995003;28;20041;-66
2024/01/09 03:30:51;;;;;;;16.98;5.68;;;-7.00;99.60;;;;;;4993544;28;20152;-67
2024/01/09 03:33:17;;;;;;;13.23;5.35;;;-7.00;99.50;;;;;;4992679;28;20140;-67
2024/01/09 03:35:43;;;;;;;16.42;6.05;;;-7.10;99.20;;;;;;4994889;28;20434;-67
2024/01/09 03:38:08;;;;;;;12.20;5.32;;;-7.10;99.30;;;;;;4997679;28;20815;-67
2024/01/09 03:40:35;;;;;;;12.13;5.57;;;-7.10;99.40;;;;;;4998291;28;20034;-67
2024/01/09 03:43:02;;;;;;;12.00;5.22;;;-7.10;99.50;;;;;;4999085;28;20141;-67
2024/01/09 03:45:29;;;;;;;16.58;6.07;;;-7.10;99.30;;;;;;4997406;28;20030;-67
2024/01/09 03:47:55;;;;;;;19.10;5.60;;;-7.10;99.30;;;;;;5001689;28;20095;-67
2024/01/09 03:50:21;;;;;;;13.38;5.82;;;-7.10;99.20;;;;;;4994350;28;20038;-67
2024/01/09 03:52:47;;;;;;;9.93;4.95;;;-7.20;99.20;;;;;;4997100;28;20026;-66
2024/01/09 03:55:15;;;;;;;16.70;5.95;;;-7.10;99.70;;;;;;4997072;28;20454;-66
2024/01/09 03:57:42;;;;;;;11.52;5.32;;;-7.10;99.90;;;;;;4996530;28;20091;-67
2024/01/09 04:00:08;;;;;;;14.70;5.00;;;-7.10;99.90;;;;;;4999811;28;20049;-67
2024/01/09 04:02:34;;;;;;;9.90;5.10;;;-7.10;99.90;;;;;;4997903;28;20068;-67
2024/01/09 04:04:59;;;;;;;18.08;5.68;;;-7.10;99.90;;;;;;4997912;28;20061;-67
2024/01/09 04:07:25;;;;;;;17.65;5.97;;;-7.10;99.90;;;;;;4997207;28;20034;-67
2024/01/09 04:09:51;;;;;;;11.93;5.25;;;-7.10;99.90;;;;;;4995735;28;20041;-67
2024/01/09 04:12:17;;;;;;;10.63;5.63;;;-7.10;99.80;;;;;;4995851;28;20038;-67
2024/01/09 04:14:43;;;;;;;15.13;5.15;;;-7.10;99.80;;;;;;4993941;28;20027;-67
2024/01/09 04:17:09;;;;;;;13.65;5.30;;;-7.10;99.70;;;;;;4995429;28;20041;-67
2024/01/09 04:19:38;;;;;;;13.48;4.78;;;-7.10;99.20;;;;;;5001142;28;20037;-67
2024/01/09 04:22:05;;;;;;;17.58;5.90;;;-7.20;99.10;;;;;;4994579;28;20697;-66
2024/01/09 04:24:32;;;;;;;12.05;5.60;;;-7.20;99.10;;;;;;4994166;28;20041;-67
2024/01/09 04:26:58;;;;;;;15.48;6.10;;;-7.30;99.20;;;;;;4986981;28;20034;-67
2024/01/09 04:29:24;;;;;;;16.27;5.45;;;-7.30;99.10;;;;;;4993895;28;20363;-67
2024/01/09 04:31:50;;;;;;;11.40;5.05;;;-7.30;99.40;;;;;;4998362;28;20038;-67
2024/01/09 04:34:16;;;;;;;9.82;4.93;;;-7.30;99.50;;;;;;4993678;28;20092;-67
2024/01/09 04:36:42;;;;;;;10.68;5.35;;;-7.30;99.90;;;;;;4997551;28;20042;-67
2024/01/09 04:39:07;;;;;;;18.50;5.55;;;-7.20;99.90;;;;;;4995766;28;20038;-67
2024/01/09 04:41:33;;;;;;;15.25;5.70;;;-7.20;99.90;;;;;;4995100;28;20034;-67
2024/01/09 04:43:59;;;;;;;13.10;5.50;;;-7.20;99.90;;;;;;4996054;28;20042;-66
2024/01/09 04:46:24;;;;;;;13.70;5.90;;;-7.10;99.90;;;;;;5000074;28;20030;-67
2024/01/09 04:48:50;;;;;;;14.02;5.50;;;-7.20;99.90;;;;;;4994530;28;20465;-67
2024/01/09 04:51:16;;;;;;;12.18;5.85;;;-7.10;99.90;;;;;;4998182;28;20522;-67
2024/01/09 04:53:42;;;;;;;17.55;6.55;;;-7.10;99.90;;;;;;4994673;28;20796;-67
2024/01/09 04:56:08;;;;;;;17.48;6.28;;;-7.20;99.90;;;;;;4993299;28;20056;-67
2024/01/09 04:58:35;;;;;;;10.25;4.88;;;-7.20;99.90;;;;;;4994095;28;20112;-66
2024/01/09 05:01:00;;;;;;;13.05;5.60;;;-7.20;99.90;;;;;;4995768;28;20074;-66
2024/01/09 05:03:26;;;;;;;19.30;6.40;;;-7.20;99.90;;;;;;4994804;28;20058;-67
2024/01/09 05:05:52;;;;;;;14.55;5.32;;;-7.20;99.90;;;;;;4999956;28;20541;-67
2024/01/09 05:08:18;;;;;;;15.95;5.57;;;-7.10;99.90;;;;;;4989695;28;20034;-67
2024/01/09 05:10:44;;;;;;;12.40;5.53;;;-7.20;99.90;;;;;;4995826;28;20125;-67
2024/01/09 05:13:10;;;;;;;10.65;5.28;;;-7.10;99.90;;;;;;4993850;28;20077;-67
2024/01/09 05:15:36;;;;;;;15.85;6.15;;;-7.20;99.90;;;;;;4995267;28;20446;-67
2024/01/09 05:18:02;;;;;;;14.40;5.80;;;-7.20;99.90;;;;;;4997594;28;20035;-67
2024/01/09 05:20:28;;;;;;;19.73;6.05;;;-7.10;99.90;;;;;;4995971;28;20104;-67
2024/01/09 05:22:55;;;;;;;15.30;4.97;;;-7.10;99.90;;;;;;4993379;28;20061;-67
2024/01/09 05:25:20;;;;;;;12.07;4.82;;;-7.10;99.90;;;;;;4997459;28;20117;-67
2024/01/09 05:27:46;;;;;;;11.05;4.88;;;-7.10;99.90;;;;;;4994237;28;20110;-67
2024/01/09 05:30:12;;;;;;;13.70;5.72;;;-7.10;99.90;;;;;;4996594;28;20502;-67
2024/01/09 05:32:39;;;;;;;13.88;6.22;;;-7.00;99.90;;;;;;4993152;28;20034;-67
2024/01/09 05:35:05;;;;;;;10.13;4.55;;;-7.10;99.90;;;;;;4993607;28;20045;-67
2024/01/09 05:37:31;;;;;;;12.95;5.68;;;-7.10;99.90;;;;;;4995398;28;20701;-67
2024/01/09 05:39:57;;;;;;;13.20;5.10;;;-7.10;99.90;;;;;;4994159;28;20046;-67
2024/01/09 05:42:22;;;;;;;11.57;4.75;;;-7.10;99.90;;;;;;4993764;28;20038;-67
2024/01/09 05:44:48;;;;;;;13.45;5.82;;;-7.10;99.90;;;;;;4997878;28;20038;-66
2024/01/09 05:47:14;;;;;;;12.38;5.47;;;-7.10;99.90;;;;;;4993509;28;20116;-67
2024/01/09 05:49:39;;;;;;;16.40;6.68;;;-7.10;99.90;;;;;;4996542;28;20030;-67
2024/01/09 05:52:05;;;;;;;14.57;5.65;;;-7.20;99.90;;;;;;4998983;28;20103;-67
2024/01/09 05:54:31;;;;;;;10.00;4.57;;;-7.10;99.90;;;;;;4996856;28;20042;-67
2024/01/09 05:56:57;;;;;;;15.80;6.03;;;-7.20;99.90;;;;;;5002222;28;20044;-67
2024/01/09 05:59:23;;;;;;;13.85;5.53;;;-7.20;99.90;;;;;;4989104;28;20065;-66
2024/01/09 06:01:49;;;;;;;15.23;5.85;;;-7.10;99.90;;;;;;4993916;28;20109;-67
2024/01/09 06:04:14;;;;;;;15.05;5.65;;;-7.20;99.90;;;;;;4997673;28;20550;-67
2024/01/09 06:06:40;;;;;;;16.20;5.10;;;-7.20;99.90;;;;;;4997057;28;20042;-67
2024/01/09 06:09:06;;;;;;;13.05;5.15;;;-7.20;99.90;;;;;;4995071;28;20113;-67
2024/01/09 06:11:31;;;;;;;10.38;4.78;;;-7.10;99.90;;;;;;5001708;28;20030;-67
2024/01/09 06:13:57;;;;;;;15.77;5.78;;;-7.10;99.90;;;;;;4998310;28;20038;-67
2024/01/09 06:16:23;;;;;;;11.90;5.07;;;-7.10;99.90;;;;;;4995846;28;20035;-67
2024/01/09 06:18:49;;;;;;;13.90;4.93;;;-7.10;99.90;;;;;;4993082;28;20026;-67
2024/01/09 06:21:15;;;;;;;14.60;5.13;;;-7.10;99.90;;;;;;4990820;28;20105;-67
2024/01/09 06:23:41;;;;;;;14.02;6.05;;;-7.10;99.90;;;;;;4997892;28;20034;-67
2024/01/09 06:26:06;;;;;;;11.55;5.38;;;-7.10;99.90;;;;;;4997083;28;20033;-67
2024/01/09 06:28:33;;;;;;;14.85;5.60;;;-7.10;99.90;;;;;;4998838;28;20472;-67
2024/01/09 06:30:59;;;;;;;13.07;5.40;;;-7.10;99.90;;;;;;4993168;28;20038;-67
2024/01/09 06:33:26;;;;;;;18.08;6.40;;;-7.10;99.90;;;;;;4996380;28;20030;-67
2024/01/09 06:35:51;;;;;;;20.20;6.35;;;-7.10;99.90;;;;;;4991677;28;20121;-67
2024/01/09 06:38:17;;;;;;;17.85;5.22;;;-7.20;99.90;;;;;;5002082;28;20516;-67
2024/01/09 06:40:44;;;;;;;11.82;5.32;;;-7.10;99.90;;;;;;4995396;28;20038;-67
2024/01/09 06:43:10;;;;;;;14.18;5.63;;;-7.10;99.90;;;;;;4998299;28;20469;-67
2024/01/09 06:45:35;;;;;;;17.33;6.03;;;-7.10;99.90;;;;;;4996029;28;20037;-67
2024/01/09 06:48:02;;;;;;;11.88;5.50;;;-7.10;99.90;;;;;;4997559;28;20034;-67
2024/01/09 06:50:28;;;;;;;14.05;4.80;;;-7.10;99.90;;;;;;5004725;28;20041;-67
2024/01/09 06:52:53;;;;;;;13.52;5.63;;;-7.10;99.90;;;;;;4998799;28;20044;-67
2024/01/09 06:55:20;;;;;;;12.93;5.45;;;-7.20;99.90;;;;;;4999871;28;20055;-66
2024/01/09 06:57:45;;;;;;;11.23;5.20;;;-7.20;99.90;;;;;;4994993;28;20117;-67
2024/01/09 07:00:12;;;;;;;12.95;5.75;;;-7.20;99.90;;;;;;4996734;28;20565;-66
2024/01/09 07:02:38;;;;;;;17.33;5.82;;;-7.20;99.50;;;;;;4991704;28;20037;-66
2024/01/09 07:05:05;;;;;;;13.70;5.40;;;-7.20;99.50;;;;;;4993904;28;20056;-66
2024/01/09 07:07:30;;;;;;;13.52;5.40;;;-7.20;99.20;;;;;;4995923;28;20034;-66
2024/01/09 07:09:56;;;;;;;18.58;5.28;;;-7.20;99.20;;;;;;4998180;28;20474;-66
2024/01/09 07:12:22;;;;;;;9.77;4.80;;;-7.30;99.10;;;;;;4981493;28;20030;-66
2024/01/09 07:14:48;;;;;;;15.93;5.90;;;-7.30;98.90;;;;;;4989965;28;20037;-66
2024/01/09 07:17:14;;;;;;;13.30;5.75;;;-7.40;98.80;;;;;;5002423;28;20472;-67
2024/01/09 07:19:40;;;;;;;14.60;5.35;;;-7.40;98.80;;;;;;4977378;28;22708;-67
2024/01/09 07:22:06;;;;;;;14.63;6.80;;;-7.40;98.60;;;;;;4993609;28;20076;-67
2024/01/09 07:24:31;;;;;;;14.65;5.78;;;-7.40;98.50;;;;;;4987757;28;20049;-67
2024/01/09 07:26:57;;;;;;;16.83;6.43;;;-7.40;98.90;;;;;;4994838;28;20057;-66
2024/01/09 07:29:23;;;;;;;15.50;6.05;;;-7.40;99.00;;;;;;4998544;28;20049;-66
2024/01/09 07:31:49;;;;;;;13.30;5.07;;;-7.40;98.90;;;;;;4985679;28;20045;-64
2024/01/09 07:34:14;;;;;;;17.15;5.95;;;-7.40;98.70;;;;;;4991685;28;20042;-66
2024/01/09 07:36:42;;;;;;;11.88;5.82;;;-7.40;98.80;;;;;;4992385;28;20037;-66
2024/01/09 07:39:09;;;;;;;12.93;4.75;;;-7.40;98.90;;;;;;4998031;28;20233;-66
2024/01/09 07:41:36;;;;;;;12.77;5.43;;;-7.40;98.60;;;;;;4998257;28;20038;-66
2024/01/09 07:44:02;;;;;;;14.55;5.82;;;-7.40;99.00;;;;;;4992300;28;20030;-65
2024/01/09 07:46:28;;;;;;;16.45;6.35;;;-7.40;99.20;;;;;;4988947;28;20042;-65
2024/01/09 07:48:54;;;;;;;15.07;5.45;;;-7.40;99.40;;;;;;4989027;28;20038;-66
2024/01/09 07:51:20;;;;;;;12.32;6.05;;;-7.40;99.80;;;;;;4989863;28;20095;-65
2024/01/09 07:53:46;;;;;;;17.95;5.40;;;-7.30;99.90;;;;;;4991935;28;20041;-66
2024/01/09 07:56:18;;;;;;;15.65;5.70;;;-7.30;99.90;;;;;;4995676;28;20030;-65
2024/01/09 07:58:45;;;;;;;13.65;7.35;;;-7.20;99.90;;;;;;4993687;28;20057;-65
2024/01/09 08:01:14;;;;;;;15.05;6.88;;;-7.10;99.90;;;;;;4996065;28;20038;-66
2024/01/09 08:03:41;;;;;;;18.23;6.78;;;-7.00;99.90;;;;;;4993060;28;20034;-65
2024/01/09 08:06:12;;;;;;;18.52;6.70;;;-6.90;99.90;;;;;;4999786;28;20025;-66
2024/01/09 08:08:39;;;;;;;16.83;5.90;;;-6.80;99.90;;;;;;4994916;28;20434;-65
2024/01/09 08:11:08;;;;;;;20.63;6.10;;;-6.70;99.90;;;;;;4994260;28;20037;-66
2024/01/09 08:13:34;;;;;;;18.13;6.40;;;-6.70;99.90;;;;;;4994793;28;20096;-66
2024/01/09 08:16:00;;;;;;;16.40;6.70;;;-6.50;99.90;;;;;;4988792;28;20049;-66
2024/01/09 08:18:26;;;;;;;18.92;6.93;;;-6.50;99.90;;;;;;4992427;28;20068;-65
2024/01/09 08:20:52;;;;;;;18.42;7.05;;;-6.40;99.90;;;;;;4999028;28;20057;-66
2024/01/09 08:23:18;;;;;;;20.20;7.35;;;-6.30;99.90;;;;;;4994264;28;20065;-66
2024/01/09 08:25:44;;;;;;;17.98;7.00;;;-6.20;99.90;;;;;;4989452;28;20034;-66
2024/01/09 08:28:10;;;;;;;17.02;6.68;;;-6.20;99.90;;;;;;4996986;28;20038;-66
2024/01/09 08:30:35;;;;;;;18.45;7.55;;;-6.10;99.90;;;;;;4991378;28;20068;-65
2024/01/09 08:33:01;;;;;;;16.02;6.53;;;-6.10;99.90;;;;;;4994733;28;20521;-65
2024/01/09 08:35:27;;;;;;;19.42;5.72;;;-5.90;99.90;;;;;;4997881;28;20037;-65
2024/01/09 08:37:53;;;;;;;17.27;6.82;;;-5.80;99.90;;;;;;4994542;28;20038;-65
2024/01/09 08:40:18;;;;;;;14.30;6.22;;;-5.70;99.90;;;;;;4998116;28;20065;-66
2024/01/09 08:42:44;;;;;;;22.90;8.63;;;-5.60;99.90;;;;;;4990579;28;20031;-65
2024/01/09 08:45:12;;;;;;;23.83;9.25;;;-5.40;99.90;;;;;;4993500;28;20038;-65
2024/01/09 08:47:38;;;;;;;21.35;8.63;;;-5.40;99.90;;;;;;4994213;28;20038;-66
2024/01/09 08:50:04;;;;;;;27.48;8.52;;;-5.20;99.90;;;;;;4994803;28;20084;-66
2024/01/09 08:52:31;;;;;;;23.83;9.05;;;-5.20;99.90;;;;;;4992169;28;20042;-66
2024/01/09 08:54:56;;;;;;;24.55;8.57;;;-5.20;99.90;;;;;;4996187;28;20034;-65
2024/01/09 08:57:22;;;;;;;27.60;10.23;;;-5.10;99.90;;;;;;4992996;28;20044;-66
2024/01/09 08:59:48;;;;;;;21.63;7.95;;;-5.00;99.90;;;;;;4996634;28;20157;-66
2024/01/09 09:02:14;;;;;;;27.50;9.95;;;-4.90;99.90;;;;;;4993633;28;20081;-65
2024/01/09 09:04:41;;;;;;;25.33;9.18;;;-4.80;99.90;;;;;;4992998;28;20041;-65
2024/01/09 09:07:07;;;;;;;18.10;7.75;;;-4.60;99.50;;;;;;4996193;28;20600;-65
2024/01/09 09:09:35;;;;;;;23.50;8.60;;;-4.50;99.10;;;;;;4985758;28;20030;-65
2024/01/09 09:12:01;;;;;;;23.63;8.35;;;-4.30;99.90;;;;;;4991626;28;20089;-66
2024/01/09 09:14:27;;;;;;;23.15;8.35;;;-4.20;99.90;;;;;;4997428;28;20047;-65
2024/01/09 09:16:53;;;;;;;23.08;9.43;;;-4.00;99.60;;;;;;4987316;28;20037;-65
2024/01/09 09:19:22;;;;;;;22.67;8.45;;;-3.60;99.30;;;;;;4991795;28;20504;-67
2024/01/09 09:21:52;;;;;;;22.02;8.88;;;-2.90;97.20;;;;;;5003911;28;20125;-66
2024/01/09 09:24:17;;;;;;;20.45;8.32;;;-1.60;94.40;;;;;;4992154;28;20138;-66
2024/01/09 09:26:44;;;;;;;23.67;7.40;;;-0.70;91.00;;;;;;4992945;28;20075;-68
2024/01/09 09:29:10;;;;;;;20.80;8.38;;;0.00;90.10;;;;;;4992671;28;20157;-67
2024/01/09 09:31:36;;;;;;;22.10;8.38;;;1.10;83.70;;;;;;4995760;28;20715;-68
2024/01/09 09:34:01;;;;;;;20.42;8.63;;;2.20;77.50;;;;;;5003131;28;20112;-68
2024/01/09 09:36:28;;;;;;;20.45;8.85;;;3.10;71.20;;;;;;4995211;28;20383;-67
2024/01/09 09:38:53;;;;;;;23.60;8.75;;;4.00;67.20;;;;;;5000999;28;20034;-67
2024/01/09 09:41:23;;;;;;;20.63;8.75;;;4.60;63.00;;;;;;4989303;28;20038;-67
2024/01/09 09:43:57;;;;;;;20.55;7.88;;;5.20;59.60;;;;;;4996125;28;20156;-67
2024/01/09 09:46:31;;;;;;;21.40;8.77;;;5.90;57.10;;;;;;5001603;28;20034;-67
2024/01/09 09:48:57;;;;;;;26.35;8.82;;;6.50;55.20;;;;;;4994229;28;20081;-68
2024/01/09 09:51:24;;;;;;;21.10;8.63;;;6.90;53.40;;;;;;5000661;28;20038;-67
2024/01/09 09:53:52;;;;;;;21.42;9.25;;;7.20;52.60;;;;;;4999426;28;20050;-66
2024/01/09 09:56:19;;;;;;;26.25;8.95;;;7.50;50.60;;;;;;4994972;28;20772;-67
2024/01/09 09:58:45;;;;;;;20.70;9.43;;;7.50;49.40;;;;;;4997708;28;20491;-66
2024/01/09 10:01:13;;;;;;;19.85;8.57;;;7.80;48.40;;;;;;4996860;28;20046;-63
2024/01/09 10:04:02;;;;;;;21.10;9.32;;;8.20;47.70;;;;;;4996048;28;20030;-64
2024/01/09 10:06:29;;;;;;;25.00;9.02;;;8.60;46.30;;;;;;4998203;28;20043;-64
2024/01/09 10:08:56;;;;;;;21.92;9.43;;;9.00;45.00;;;;;;4993791;28;20477;-63
2024/01/09 10:11:23;;;;;;;19.85;8.63;;;9.00;44.70;;;;;;4996884;28;20446;-64
2024/01/09 10:13:49;;;;;;;19.48;7.70;;;9.00;44.40;;;;;;4996095;28;20026;-64
2024/01/09 10:16:15;;;;;;;20.27;8.70;;;9.30;44.40;;;;;;4989079;28;20145;-64
2024/01/09 10:18:41;;;;;;;25.20;8.95;;;9.50;43.90;;;;;;4997254;28;20164;-64
2024/01/09 10:21:07;;;;;;;24.60;10.40;;;9.80;42.90;;;;;;4996181;28;20640;-64
2024/01/09 10:23:39;;;;;;;21.83;9.48;;;9.80;43.40;;;;;;4994820;28;20152;-64
2024/01/09 10:26:11;;;;;;;25.77;8.57;;;10.10;42.20;;;;;;4992958;28;20065;-64
2024/01/09 10:28:38;;;;;;;18.02;8.40;;;10.20;41.90;;;;;;4993069;28;20128;-63
2024/01/09 10:31:07;;;;;;;17.05;8.05;;;10.00;42.10;;;;;;4998201;28;20117;-64
2024/01/09 10:33:39;;;;;;;21.92;8.57;;;9.20;41.90;;;;;;4994868;28;20123;-65
2024/01/09 10:36:05;;;;;;;24.02;9.38;;;8.70;43.50;;;;;;4993603;28;20042;-65
2024/01/09 10:38:32;;;;;;;19.08;8.68;;;8.30;43.80;;;;;;5000126;28;20092;-65
2024/01/09 10:41:02;;;;;;;25.48;8.50;;;8.00;45.00;;;;;;5002593;28;20410;-65
2024/01/09 10:43:28;;;;;;;25.58;9.85;;;8.10;45.00;;;;;;4991626;28;20104;-65
2024/01/09 10:45:54;;;;;;;22.13;9.30;;;8.60;44.40;;;;;;4994481;28;20034;-65
2024/01/09 10:48:25;;;;;;;23.27;9.75;;;9.20;43.80;;;;;;4995193;28;20033;-65
2024/01/09 10:50:51;;;;;;;19.67;8.88;;;9.90;42.80;;;;;;4995113;28;20133;-65
2024/01/09 10:53:20;;;;;;;24.75;10.65;;;10.00;42.00;;;;;;4998887;28;20129;-64
2024/01/09 10:55:49;;;;;;;27.50;9.70;;;10.10;42.00;;;;;;4995248;28;20042;-65
2024/01/09 10:58:15;;;;;;;24.27;9.77;;;10.70;42.40;;;;;;4991965;28;20038;-64
2024/01/09 11:00:41;;;;;;;21.48;9.18;;;11.10;41.50;;;;;;4995536;28;20502;-64
2024/01/09 11:03:07;;;;;;;20.73;8.88;;;11.50;40.90;;;;;;4996660;28;20545;-64
2024/01/09 11:05:34;;;;;;;22.13;8.60;;;11.60;38.60;;;;;;4994924;28;20030;-64
2024/01/09 11:08:04;;;;;;;20.00;8.38;;;11.40;39.30;;;;;;4998749;28;20053;-64
2024/01/09 11:10:31;;;;;;;18.15;7.75;;;11.00;39.10;;;;;;4992656;28;20502;-64
2024/01/09 11:13:00;;;;;;;19.02;7.88;;;10.60;40.20;;;;;;4998364;28;20145;-64
2024/01/09 11:15:33;;;;;;;20.35;8.55;;;10.10;40.00;;;;;;4998151;28;20052;-65
2024/01/09 11:18:06;;;;;;;21.35;9.68;;;9.70;40.50;;;;;;4993048;28;20493;-64
2024/01/09 11:20:32;;;;;;;17.85;8.32;;;9.30;41.00;;;;;;4991485;28;20041;-64
2024/01/09 11:22:58;;;;;;;20.55;8.45;;;8.90;41.30;;;;;;4990559;28;20069;-64
2024/01/09 11:25:24;;;;;;;23.33;8.48;;;7.80;42.90;;;;;;4993066;28;20069;-67
2024/01/09 11:27:51;;;;;;;19.95;9.20;;;6.20;46.20;;;;;;4991390;28;20058;-68
2024/01/09 11:30:27;;;;;;;23.17;7.68;;;4.80;50.10;;;;;;4992872;28;20145;-67
2024/01/09 11:32:53;;;;;;;20.67;8.38;;;3.50;52.00;;;;;;4994367;28;20053;-67
2024/01/09 11:35:21;;;;;;;18.05;7.88;;;2.80;55.00;;;;;;4996988;28;20038;-68
2024/01/09 11:37:51;;;;;;;21.05;8.90;;;2.20;56.70;;;;;;4989053;28;20458;-67
2024/01/09 11:40:19;;;;;;;17.48;8.20;;;1.80;58.00;;;;;;4995815;28;20034;-67
2024/01/09 11:42:47;;;;;;;20.08;7.68;;;1.60;58.70;;;;;;4993485;28;20039;-69
2024/01/09 11:45:20;;;;;;;25.23;8.63;;;1.40;59.90;;;;;;5001085;28;20059;-69
2024/01/09 11:47:46;;;;;;;17.23;7.47;;;1.30;60.00;;;;;;4989669;28;20018;-69
2024/01/09 11:50:12;;;;;;;17.98;8.05;;;1.20;60.10;;;;;;4994199;28;20140;-67
2024/01/09 11:52:42;;;;;;;17.65;7.97;;;1.20;61.70;;;;;;4993551;28;20042;-68
2024/01/09 11:55:11;;;;;;;20.48;7.63;;;0.90;58.80;;;;;;4988657;28;20031;-68
2024/01/09 11:57:39;;;;;;;20.08;7.20;;;0.80;60.00;;;;;;4985425;28;20101;-68
2024/01/09 12:00:06;;;;;;;18.60;7.85;;;0.70;61.20;;;;;;4993449;28;20178;-69
2024/01/09 12:02:41;;;;;;;17.90;6.72;;;0.50;60.40;;;;;;4994978;28;20072;-69
2024/01/09 12:05:08;;;;;;;16.77;6.93;;;0.50;61.20;;;;;;4989546;28;20026;-68
2024/01/09 12:07:38;;;;;;;15.20;7.22;;;0.30;61.60;;;;;;4990800;28;20037;-69
2024/01/09 12:10:08;;;;;;;19.40;7.72;;;0.20;62.50;;;;;;4988295;28;20090;-69
2024/01/09 12:12:34;;;;;;;15.35;6.88;;;-0.10;62.50;;;;;;4991351;28;20041;-69
2024/01/09 12:15:01;;;;;;;20.95;7.80;;;-0.20;62.80;;;;;;4992989;28;20037;-68
2024/01/09 12:17:37;;;;;;;14.10;6.18;;;-0.40;63.60;;;;;;4989695;28;20044;-69
2024/01/09 12:20:03;;;;;;;;;;;-0.50;64.60;;;;;;4991089;28;20042;-69
2024/01/09 12:22:33;;;;;;;16.98;6.90;;;-0.70;64.00;;;;;;4998915;28;19925;-67
2024/01/09 12:25:00;;;;;;;18.25;7.20;;;-0.60;65.40;;;;;;4994351;28;20034;-67
2024/01/09 12:27:26;;;;;;;13.30;6.35;;;-0.70;64.80;;;;;;4995396;28;20061;-67
2024/01/09 12:29:52;;;;;;;18.02;7.07;;;-0.70;65.00;;;;;;4992921;28;20053;-67
2024/01/09 12:32:20;;;;;;;16.65;6.88;;;-0.70;65.30;;;;;;4992775;28;20736;-68
2024/01/09 12:34:47;;;;;;;16.50;6.57;;;-0.60;66.00;;;;;;4995012;28;20513;-67